sensor_id;sensor_type;location;lat;lon;timestamp;P1;durP1;ratioP1;P2;durP2;ratioP2
72132;SDS011;60008;50.826;6.896;2023-06-26T00:02:17;6.20;;;3.80;;
72132;SDS011;60008;50.826;6.896;2023-06-26T00:05:08;6.43;;;3.42;;
72132;SDS011;60008;50.826;6.896;2023-06-26T00:07:59;6.45;;;3.88;;
72132;SDS011;60008;50.826;6.896;2023-06-26T00:10:51;5.60;;;3.60;;
72132;SDS011;60008;50.826;6.896;2023-06-26T00:13:36;6.53;;;3.80;;
72132;SDS011;60008;50.826;6.896;2023-06-26T00:16:27;5.67;;;3.80;;
72132;SDS011;60008;50.826;6.896;2023-06-26T00:19:12;6.93;;;4.20;;
72132;SDS011;60008;50.826;6.896;2023-06-26T00:22:04;9.23;;;3.78;;
72132;SDS011;60008;50.826;6.896;2023-06-26T00:24:49;6.72;;;4.28;;
72132;SDS011;60008;50.826;6.896;2023-06-26T00:27:40;6.15;;;3.65;;
72132;SDS011;60008;50.826;6.896;2023-06-26T00:30:25;5.53;;;3.60;;
72132;SDS011;60008;50.826;6.896;2023-06-26T00:33:16;11.93;;;3.75;;
72132;SDS011;60008;50.826;6.896;2023-06-26T00:36:01;7.35;;;3.70;;
72132;SDS011;60008;50.826;6.896;2023-06-26T00:38:52;6.57;;;3.88;;
72132;SDS011;60008;50.826;6.896;2023-06-26T00:41:37;6.70;;;3.97;;
72132;SDS011;60008;50.826;6.896;2023-06-26T00:44:29;6.53;;;4.07;;
72132;SDS011;60008;50.826;6.896;2023-06-26T00:47:20;7.10;;;3.53;;
72132;SDS011;60008;50.826;6.896;2023-06-26T00:50:05;8.57;;;3.92;;
72132;SDS011;60008;50.826;6.896;2023-06-26T00:52:57;7.38;;;3.50;;
72132;SDS011;60008;50.826;6.896;2023-06-26T00:55:51;6.45;;;3.80;;
72132;SDS011;60008;50.826;6.896;2023-06-26T00:58:36;7.00;;;4.00;;
72132;SDS011;60008;50.826;6.896;2023-06-26T01:01:27;7.00;;;3.83;;
72132;SDS011;60008;50.826;6.896;2023-06-26T01:04:18;6.53;;;3.90;;
72132;SDS011;60008;50.826;6.896;2023-06-26T01:07:10;6.85;;;3.97;;
72132;SDS011;60008;50.826;6.896;2023-06-26T01:10:03;8.10;;;4.10;;
72132;SDS011;60008;50.826;6.896;2023-06-26T01:12:56;9.03;;;4.30;;
72132;SDS011;60008;50.826;6.896;2023-06-26T01:15:42;6.43;;;4.00;;
72132;SDS011;60008;50.826;6.896;2023-06-26T01:18:34;7.53;;;3.70;;
72132;SDS011;60008;50.826;6.896;2023-06-26T01:21:22;9.27;;;3.85;;
72132;SDS011;60008;50.826;6.896;2023-06-26T01:24:19;9.75;;;4.03;;
72132;SDS011;60008;50.826;6.896;2023-06-26T01:27:18;6.00;;;3.93;;
72132;SDS011;60008;50.826;6.896;2023-06-26T01:30:07;7.85;;;3.80;;
72132;SDS011;60008;50.826;6.896;2023-06-26T01:32:59;7.15;;;4.13;;
72132;SDS011;60008;50.826;6.896;2023-06-26T01:35:53;9.07;;;4.03;;
72132;SDS011;60008;50.826;6.896;2023-06-26T01:38:44;6.70;;;4.22;;
72132;SDS011;60008;50.826;6.896;2023-06-26T01:41:35;6.90;;;4.00;;
72132;SDS011;60008;50.826;6.896;2023-06-26T01:44:28;7.30;;;3.70;;
72132;SDS011;60008;50.826;6.896;2023-06-26T01:47:22;6.13;;;3.75;;
72132;SDS011;60008;50.826;6.896;2023-06-26T01:50:12;6.95;;;4.00;;
72132;SDS011;60008;50.826;6.896;2023-06-26T01:53:12;6.95;;;4.50;;
72132;SDS011;60008;50.826;6.896;2023-06-26T01:56:06;7.30;;;4.00;;
72132;SDS011;60008;50.826;6.896;2023-06-26T01:58:59;8.63;;;4.30;;
72132;SDS011;60008;50.826;6.896;2023-06-26T02:01:52;6.55;;;3.80;;
72132;SDS011;60008;50.826;6.896;2023-06-26T02:04:43;8.20;;;4.32;;
72132;SDS011;60008;50.826;6.896;2023-06-26T02:07:35;8.48;;;3.75;;
72132;SDS011;60008;50.826;6.896;2023-06-26T02:10:27;7.93;;;4.60;;
72132;SDS011;60008;50.826;6.896;2023-06-26T02:13:12;6.70;;;3.95;;
72132;SDS011;60008;50.826;6.896;2023-06-26T02:16:04;6.28;;;4.10;;
72132;SDS011;60008;50.826;6.896;2023-06-26T02:18:49;5.97;;;3.95;;
72132;SDS011;60008;50.826;6.896;2023-06-26T02:21:40;9.25;;;4.50;;
72132;SDS011;60008;50.826;6.896;2023-06-26T02:24:25;6.30;;;4.07;;
72132;SDS011;60008;50.826;6.896;2023-06-26T02:27:21;8.10;;;4.45;;
72132;SDS011;60008;50.826;6.896;2023-06-26T02:30:07;6.95;;;4.30;;
72132;SDS011;60008;50.826;6.896;2023-06-26T02:32:59;7.00;;;4.25;;
72132;SDS011;60008;50.826;6.896;2023-06-26T02:35:51;7.30;;;3.97;;
72132;SDS011;60008;50.826;6.896;2023-06-26T02:38:36;7.10;;;4.13;;
72132;SDS011;60008;50.826;6.896;2023-06-26T02:41:27;7.10;;;4.32;;
72132;SDS011;60008;50.826;6.896;2023-06-26T02:44:12;7.32;;;3.90;;
72132;SDS011;60008;50.826;6.896;2023-06-26T02:47:05;6.93;;;4.40;;
72132;SDS011;60008;50.826;6.896;2023-06-26T02:49:57;6.38;;;4.28;;
72132;SDS011;60008;50.826;6.896;2023-06-26T02:52:42;6.77;;;4.13;;
72132;SDS011;60008;50.826;6.896;2023-06-26T02:55:34;7.38;;;4.03;;
72132;SDS011;60008;50.826;6.896;2023-06-26T02:58:19;7.88;;;4.43;;
72132;SDS011;60008;50.826;6.896;2023-06-26T03:01:11;6.40;;;3.97;;
72132;SDS011;60008;50.826;6.896;2023-06-26T03:04:04;7.03;;;4.07;;
72132;SDS011;60008;50.826;6.896;2023-06-26T03:06:56;7.00;;;4.00;;
72132;SDS011;60008;50.826;6.896;2023-06-26T03:09:54;8.55;;;3.80;;
72132;SDS011;60008;50.826;6.896;2023-06-26T03:12:45;6.22;;;4.03;;
72132;SDS011;60008;50.826;6.896;2023-06-26T03:15:30;6.10;;;3.63;;
72132;SDS011;60008;50.826;6.896;2023-06-26T03:18:21;6.53;;;4.32;;
72132;SDS011;60008;50.826;6.896;2023-06-26T03:21:13;6.00;;;3.63;;
72132;SDS011;60008;50.826;6.896;2023-06-26T03:23:58;6.47;;;4.13;;
72132;SDS011;60008;50.826;6.896;2023-06-26T03:26:49;6.97;;;4.03;;
72132;SDS011;60008;50.826;6.896;2023-06-26T03:29:34;11.02;;;4.20;;
72132;SDS011;60008;50.826;6.896;2023-06-26T03:32:25;5.47;;;3.90;;
72132;SDS011;60008;50.826;6.896;2023-06-26T03:35:10;7.87;;;3.87;;
72132;SDS011;60008;50.826;6.896;2023-06-26T03:38:01;6.68;;;3.88;;
72132;SDS011;60008;50.826;6.896;2023-06-26T03:40:53;7.15;;;3.78;;
72132;SDS011;60008;50.826;6.896;2023-06-26T03:43:38;7.45;;;4.10;;
72132;SDS011;60008;50.826;6.896;2023-06-26T03:46:29;6.55;;;4.10;;
72132;SDS011;60008;50.826;6.896;2023-06-26T03:49:21;9.63;;;4.20;;
72132;SDS011;60008;50.826;6.896;2023-06-26T03:52:13;6.35;;;3.70;;
72132;SDS011;60008;50.826;6.896;2023-06-26T03:55:04;7.60;;;4.10;;
72132;SDS011;60008;50.826;6.896;2023-06-26T03:57:49;8.88;;;4.43;;
72132;SDS011;60008;50.826;6.896;2023-06-26T04:00:40;7.80;;;4.00;;
72132;SDS011;60008;50.826;6.896;2023-06-26T04:03:25;7.97;;;4.27;;
72132;SDS011;60008;50.826;6.896;2023-06-26T04:06:23;7.50;;;4.00;;
72132;SDS011;60008;50.826;6.896;2023-06-26T04:09:15;11.05;;;3.80;;
72132;SDS011;60008;50.826;6.896;2023-06-26T04:12:06;6.50;;;3.78;;
72132;SDS011;60008;50.826;6.896;2023-06-26T04:14:57;6.47;;;3.70;;
72132;SDS011;60008;50.826;6.896;2023-06-26T04:17:48;7.00;;;4.03;;
72132;SDS011;60008;50.826;6.896;2023-06-26T04:20:36;8.10;;;4.38;;
72132;SDS011;60008;50.826;6.896;2023-06-26T04:23:30;9.75;;;4.18;;
72132;SDS011;60008;50.826;6.896;2023-06-26T04:26:15;6.85;;;3.83;;
72132;SDS011;60008;50.826;6.896;2023-06-26T04:29:08;6.78;;;4.32;;
72132;SDS011;60008;50.826;6.896;2023-06-26T04:32:00;8.20;;;4.00;;
72132;SDS011;60008;50.826;6.896;2023-06-26T04:34:45;5.90;;;3.90;;
72132;SDS011;60008;50.826;6.896;2023-06-26T04:37:39;7.82;;;4.18;;
72132;SDS011;60008;50.826;6.896;2023-06-26T04:40:24;7.13;;;4.07;;
72132;SDS011;60008;50.826;6.896;2023-06-26T04:43:15;7.63;;;4.13;;
72132;SDS011;60008;50.826;6.896;2023-06-26T04:46:01;6.70;;;3.87;;
72132;SDS011;60008;50.826;6.896;2023-06-26T04:48:53;7.38;;;3.50;;
72132;SDS011;60008;50.826;6.896;2023-06-26T04:51:38;9.65;;;4.00;;
72132;SDS011;60008;50.826;6.896;2023-06-26T04:54:32;6.68;;;3.90;;
72132;SDS011;60008;50.826;6.896;2023-06-26T04:57:17;8.43;;;4.00;;
72132;SDS011;60008;50.826;6.896;2023-06-26T05:00:10;11.30;;;3.80;;
72132;SDS011;60008;50.826;6.896;2023-06-26T05:03:02;7.85;;;4.20;;
72132;SDS011;60008;50.826;6.896;2023-06-26T05:05:47;6.72;;;3.78;;
72132;SDS011;60008;50.826;6.896;2023-06-26T05:08:39;8.05;;;3.50;;
72132;SDS011;60008;50.826;6.896;2023-06-26T05:11:30;8.93;;;3.83;;
72132;SDS011;60008;50.826;6.896;2023-06-26T05:14:21;6.47;;;3.40;;
72132;SDS011;60008;50.826;6.896;2023-06-26T05:17:09;6.40;;;3.05;;
72132;SDS011;60008;50.826;6.896;2023-06-26T05:20:00;5.90;;;3.33;;
72132;SDS011;60008;50.826;6.896;2023-06-26T05:22:45;7.20;;;3.45;;
72132;SDS011;60008;50.826;6.896;2023-06-26T05:25:37;6.25;;;3.17;;
72132;SDS011;60008;50.826;6.896;2023-06-26T05:28:29;5.90;;;3.50;;
72132;SDS011;60008;50.826;6.896;2023-06-26T05:31:22;5.90;;;3.17;;
72132;SDS011;60008;50.826;6.896;2023-06-26T05:34:08;6.53;;;3.10;;
72132;SDS011;60008;50.826;6.896;2023-06-26T05:37:01;5.55;;;3.08;;
72132;SDS011;60008;50.826;6.896;2023-06-26T05:39:47;6.65;;;3.17;;
72132;SDS011;60008;50.826;6.896;2023-06-26T05:42:38;6.20;;;3.20;;
72132;SDS011;60008;50.826;6.896;2023-06-26T05:45:23;6.25;;;3.53;;
72132;SDS011;60008;50.826;6.896;2023-06-26T05:48:14;6.97;;;2.95;;
72132;SDS011;60008;50.826;6.896;2023-06-26T05:50:59;10.75;;;3.13;;
72132;SDS011;60008;50.826;6.896;2023-06-26T05:53:51;8.85;;;3.20;;
72132;SDS011;60008;50.826;6.896;2023-06-26T05:56:36;9.03;;;3.10;;
72132;SDS011;60008;50.826;6.896;2023-06-26T05:59:28;6.75;;;3.10;;
72132;SDS011;60008;50.826;6.896;2023-06-26T06:02:15;5.75;;;3.30;;
72132;SDS011;60008;50.826;6.896;2023-06-26T06:05:13;8.45;;;2.90;;
72132;SDS011;60008;50.826;6.896;2023-06-26T06:07:58;6.45;;;2.80;;
72132;SDS011;60008;50.826;6.896;2023-06-26T06:10:50;7.90;;;3.20;;
72132;SDS011;60008;50.826;6.896;2023-06-26T06:13:42;5.32;;;2.78;;
72132;SDS011;60008;50.826;6.896;2023-06-26T06:16:27;10.05;;;2.80;;
72132;SDS011;60008;50.826;6.896;2023-06-26T06:19:21;6.43;;;2.80;;
72132;SDS011;60008;50.826;6.896;2023-06-26T06:22:06;7.97;;;2.83;;
72132;SDS011;60008;50.826;6.896;2023-06-26T06:24:57;4.90;;;2.37;;
72132;SDS011;60008;50.826;6.896;2023-06-26T06:27:42;6.45;;;2.88;;
72132;SDS011;60008;50.826;6.896;2023-06-26T06:30:34;10.32;;;2.63;;
72132;SDS011;60008;50.826;6.896;2023-06-26T06:33:29;5.72;;;2.47;;
72132;SDS011;60008;50.826;6.896;2023-06-26T06:36:20;6.88;;;2.60;;
72132;SDS011;60008;50.826;6.896;2023-06-26T06:39:05;8.30;;;2.70;;
72132;SDS011;60008;50.826;6.896;2023-06-26T06:41:56;6.03;;;2.58;;
72132;SDS011;60008;50.826;6.896;2023-06-26T06:44:41;9.35;;;2.83;;
72132;SDS011;60008;50.826;6.896;2023-06-26T06:47:33;12.32;;;3.10;;
72132;SDS011;60008;50.826;6.896;2023-06-26T06:50:24;11.35;;;2.65;;
72132;SDS011;60008;50.826;6.896;2023-06-26T06:53:09;18.00;;;3.03;;
72132;SDS011;60008;50.826;6.896;2023-06-26T06:56:01;7.68;;;2.60;;
72132;SDS011;60008;50.826;6.896;2023-06-26T06:58:53;7.50;;;2.72;;
72132;SDS011;60008;50.826;6.896;2023-06-26T07:01:39;7.10;;;2.42;;
72132;SDS011;60008;50.826;6.896;2023-06-26T07:04:30;7.57;;;2.90;;
72132;SDS011;60008;50.826;6.896;2023-06-26T07:07:28;6.83;;;2.63;;
72132;SDS011;60008;50.826;6.896;2023-06-26T07:10:21;8.27;;;2.67;;
72132;SDS011;60008;50.826;6.896;2023-06-26T07:13:13;11.25;;;2.80;;
72132;SDS011;60008;50.826;6.896;2023-06-26T07:15:58;8.40;;;3.10;;
72132;SDS011;60008;50.826;6.896;2023-06-26T07:18:49;7.07;;;2.90;;
72132;SDS011;60008;50.826;6.896;2023-06-26T07:21:35;5.87;;;2.80;;
72132;SDS011;60008;50.826;6.896;2023-06-26T07:24:26;15.77;;;3.30;;
72132;SDS011;60008;50.826;6.896;2023-06-26T07:27:19;12.60;;;3.10;;
72132;SDS011;60008;50.826;6.896;2023-06-26T07:30:11;11.65;;;2.90;;
72132;SDS011;60008;50.826;6.896;2023-06-26T07:32:57;12.20;;;4.00;;
72132;SDS011;60008;50.826;6.896;2023-06-26T07:35:48;7.63;;;2.73;;
72132;SDS011;60008;50.826;6.896;2023-06-26T07:38:33;11.73;;;4.05;;
72132;SDS011;60008;50.826;6.896;2023-06-26T07:41:24;10.68;;;4.10;;
72132;SDS011;60008;50.826;6.896;2023-06-26T07:44:09;10.20;;;3.55;;
72132;SDS011;60008;50.826;6.896;2023-06-26T07:47:02;12.35;;;3.80;;
72132;SDS011;60008;50.826;6.896;2023-06-26T07:49:54;8.87;;;3.97;;
72132;SDS011;60008;50.826;6.896;2023-06-26T07:52:38;11.10;;;4.22;;
72132;SDS011;60008;50.826;6.896;2023-06-26T07:55:31;10.07;;;4.10;;
72132;SDS011;60008;50.826;6.896;2023-06-26T07:58:22;7.13;;;3.88;;
72132;SDS011;60008;50.826;6.896;2023-06-26T08:01:07;10.18;;;4.22;;
72132;SDS011;60008;50.826;6.896;2023-06-26T08:03:59;11.83;;;4.00;;
72132;SDS011;60008;50.826;6.896;2023-06-26T08:06:58;8.43;;;4.28;;
72132;SDS011;60008;50.826;6.896;2023-06-26T08:09:51;12.45;;;3.88;;
72132;SDS011;60008;50.826;6.896;2023-06-26T08:12:36;6.57;;;3.55;;
72132;SDS011;60008;50.826;6.896;2023-06-26T08:15:31;6.88;;;3.40;;
72132;SDS011;60008;50.826;6.896;2023-06-26T08:18:17;12.57;;;3.77;;
72132;SDS011;60008;50.826;6.896;2023-06-26T08:21:10;7.78;;;3.38;;
72132;SDS011;60008;50.826;6.896;2023-06-26T08:23:55;8.60;;;4.05;;
72132;SDS011;60008;50.826;6.896;2023-06-26T08:26:46;10.68;;;3.72;;
72132;SDS011;60008;50.826;6.896;2023-06-26T08:29:38;10.20;;;3.67;;
72132;SDS011;60008;50.826;6.896;2023-06-26T08:32:24;11.37;;;3.50;;
72132;SDS011;60008;50.826;6.896;2023-06-26T08:35:16;6.50;;;2.80;;
72132;SDS011;60008;50.826;6.896;2023-06-26T08:38:01;11.23;;;4.25;;
72132;SDS011;60008;50.826;6.896;2023-06-26T08:40:52;7.65;;;3.08;;
72132;SDS011;60008;50.826;6.896;2023-06-26T08:43:44;8.55;;;3.05;;
72132;SDS011;60008;50.826;6.896;2023-06-26T08:46:35;10.85;;;4.05;;
72132;SDS011;60008;50.826;6.896;2023-06-26T08:49:22;12.00;;;3.23;;
72132;SDS011;60008;50.826;6.896;2023-06-26T08:52:22;9.25;;;3.25;;
72132;SDS011;60008;50.826;6.896;2023-06-26T08:55:09;7.60;;;3.30;;
72132;SDS011;60008;50.826;6.896;2023-06-26T08:58:02;7.32;;;3.13;;
72132;SDS011;60008;50.826;6.896;2023-06-26T09:00:55;6.60;;;3.42;;
72132;SDS011;60008;50.826;6.896;2023-06-26T09:03:47;7.27;;;3.00;;
72132;SDS011;60008;50.826;6.896;2023-06-26T09:06:39;8.65;;;2.78;;
72132;SDS011;60008;50.826;6.896;2023-06-26T09:09:31;6.82;;;2.67;;
72132;SDS011;60008;50.826;6.896;2023-06-26T09:12:22;6.40;;;2.88;;
72132;SDS011;60008;50.826;6.896;2023-06-26T09:15:19;8.88;;;3.55;;
72132;SDS011;60008;50.826;6.896;2023-06-26T09:18:05;9.10;;;3.07;;
72132;SDS011;60008;50.826;6.896;2023-06-26T09:20:57;7.65;;;3.05;;
72132;SDS011;60008;50.826;6.896;2023-06-26T09:23:42;7.18;;;3.25;;
72132;SDS011;60008;50.826;6.896;2023-06-26T09:26:34;7.82;;;2.47;;
72132;SDS011;60008;50.826;6.896;2023-06-26T09:29:21;6.63;;;3.05;;
72132;SDS011;60008;50.826;6.896;2023-06-26T09:32:13;7.53;;;2.47;;
72132;SDS011;60008;50.826;6.896;2023-06-26T09:35:04;8.45;;;2.65;;
72132;SDS011;60008;50.826;6.896;2023-06-26T09:37:57;11.10;;;3.15;;
72132;SDS011;60008;50.826;6.896;2023-06-26T09:40:42;12.50;;;3.13;;
72132;SDS011;60008;50.826;6.896;2023-06-26T09:43:33;6.15;;;2.20;;
72132;SDS011;60008;50.826;6.896;2023-06-26T09:49:16;8.00;;;2.75;;
72132;SDS011;60008;50.826;6.896;2023-06-26T09:52:01;5.90;;;2.75;;
72132;SDS011;60008;50.826;6.896;2023-06-26T09:55:09;5.63;;;2.08;;
72132;SDS011;60008;50.826;6.896;2023-06-26T09:57:55;11.43;;;2.90;;
72132;SDS011;60008;50.826;6.896;2023-06-26T10:00:48;8.93;;;2.60;;
72132;SDS011;60008;50.826;6.896;2023-06-26T10:03:33;8.23;;;2.35;;
72132;SDS011;60008;50.826;6.896;2023-06-26T10:06:37;6.47;;;2.30;;
72132;SDS011;60008;50.826;6.896;2023-06-26T10:09:26;6.47;;;2.20;;
72132;SDS011;60008;50.826;6.896;2023-06-26T10:12:28;7.72;;;2.15;;
72132;SDS011;60008;50.826;6.896;2023-06-26T10:15:15;6.87;;;2.20;;
72132;SDS011;60008;50.826;6.896;2023-06-26T10:18:08;8.07;;;2.38;;
72132;SDS011;60008;50.826;6.896;2023-06-26T10:20:55;4.32;;;1.75;;
72132;SDS011;60008;50.826;6.896;2023-06-26T10:23:50;6.22;;;1.98;;
72132;SDS011;60008;50.826;6.896;2023-06-26T10:26:37;4.70;;;2.00;;
72132;SDS011;60008;50.826;6.896;2023-06-26T10:29:34;4.73;;;1.97;;
72132;SDS011;60008;50.826;6.896;2023-06-26T10:32:20;7.43;;;2.30;;
72132;SDS011;60008;50.826;6.896;2023-06-26T10:35:13;6.78;;;2.25;;
72132;SDS011;60008;50.826;6.896;2023-06-26T10:38:05;6.15;;;2.22;;
72132;SDS011;60008;50.826;6.896;2023-06-26T10:40:51;9.23;;;2.05;;
72132;SDS011;60008;50.826;6.896;2023-06-26T10:43:42;6.43;;;2.03;;
72132;SDS011;60008;50.826;6.896;2023-06-26T10:46:29;8.47;;;2.10;;
72132;SDS011;60008;50.826;6.896;2023-06-26T10:49:25;5.38;;;2.00;;
72132;SDS011;60008;50.826;6.896;2023-06-26T10:52:12;5.72;;;2.00;;
72132;SDS011;60008;50.826;6.896;2023-06-26T10:55:07;5.00;;;2.13;;
72132;SDS011;60008;50.826;6.896;2023-06-26T10:58:00;5.72;;;2.53;;
72132;SDS011;60008;50.826;6.896;2023-06-26T11:00:49;7.17;;;1.97;;
72132;SDS011;60008;50.826;6.896;2023-06-26T11:03:43;8.88;;;2.25;;
72132;SDS011;60008;50.826;6.896;2023-06-26T11:06:29;3.58;;;1.70;;
72132;SDS011;60008;50.826;6.896;2023-06-26T11:09:29;6.00;;;2.10;;
72132;SDS011;60008;50.826;6.896;2023-06-26T11:12:14;4.55;;;1.88;;
72132;SDS011;60008;50.826;6.896;2023-06-26T11:15:25;5.27;;;1.80;;
72132;SDS011;60008;50.826;6.896;2023-06-26T11:18:11;6.68;;;2.03;;
72132;SDS011;60008;50.826;6.896;2023-06-26T11:21:04;5.32;;;2.33;;
72132;SDS011;60008;50.826;6.896;2023-06-26T11:23:50;4.22;;;2.08;;
72132;SDS011;60008;50.826;6.896;2023-06-26T11:26:46;7.40;;;1.95;;
72132;SDS011;60008;50.826;6.896;2023-06-26T11:29:32;4.93;;;1.77;;
72132;SDS011;60008;50.826;6.896;2023-06-26T11:32:26;6.47;;;1.80;;
72132;SDS011;60008;50.826;6.896;2023-06-26T11:35:22;4.15;;;1.70;;
72132;SDS011;60008;50.826;6.896;2023-06-26T11:38:14;8.70;;;2.00;;
72132;SDS011;60008;50.826;6.896;2023-06-26T11:41:05;5.82;;;1.90;;
72132;SDS011;60008;50.826;6.896;2023-06-26T11:43:52;5.80;;;1.80;;
72132;SDS011;60008;50.826;6.896;2023-06-26T11:46:51;6.30;;;2.00;;
72132;SDS011;60008;50.826;6.896;2023-06-26T11:49:36;5.18;;;1.77;;
72132;SDS011;60008;50.826;6.896;2023-06-26T11:52:28;4.10;;;1.55;;
72132;SDS011;60008;50.826;6.896;2023-06-26T11:55:13;4.03;;;2.00;;
72132;SDS011;60008;50.826;6.896;2023-06-26T11:58:04;5.00;;;1.63;;
72132;SDS011;60008;50.826;6.896;2023-06-26T12:00:49;10.93;;;1.58;;
72132;SDS011;60008;50.826;6.896;2023-06-26T12:03:41;5.00;;;1.70;;
72132;SDS011;60008;50.826;6.896;2023-06-26T12:06:45;6.97;;;1.98;;
72132;SDS011;60008;50.826;6.896;2023-06-26T12:09:32;5.90;;;2.10;;
72132;SDS011;60008;50.826;6.896;2023-06-26T12:12:25;5.37;;;1.77;;
72132;SDS011;60008;50.826;6.896;2023-06-26T12:15:16;7.50;;;1.92;;
72132;SDS011;60008;50.826;6.896;2023-06-26T12:18:07;9.20;;;1.85;;
72132;SDS011;60008;50.826;6.896;2023-06-26T12:21:00;3.45;;;1.60;;
72132;SDS011;60008;50.826;6.896;2023-06-26T12:23:57;6.00;;;1.90;;
72132;SDS011;60008;50.826;6.896;2023-06-26T12:27:06;4.87;;;1.90;;
72132;SDS011;60008;50.826;6.896;2023-06-26T12:29:59;1.75;;;1.13;;
72132;SDS011;60008;50.826;6.896;2023-06-26T12:32:48;3.65;;;1.98;;
72132;SDS011;60008;50.826;6.896;2023-06-26T12:35:40;13.60;;;1.88;;
72132;SDS011;60008;50.826;6.896;2023-06-26T12:38:33;6.28;;;1.80;;
72132;SDS011;60008;50.826;6.896;2023-06-26T12:41:24;9.30;;;1.93;;
72132;SDS011;60008;50.826;6.896;2023-06-26T12:44:19;6.70;;;1.98;;
72132;SDS011;60008;50.826;6.896;2023-06-26T12:47:12;5.78;;;1.55;;
72132;SDS011;60008;50.826;6.896;2023-06-26T12:50:04;6.35;;;1.35;;
72132;SDS011;60008;50.826;6.896;2023-06-26T12:52:57;9.68;;;1.83;;
72132;SDS011;60008;50.826;6.896;2023-06-26T12:55:42;6.43;;;1.67;;
72132;SDS011;60008;50.826;6.896;2023-06-26T12:58:37;5.65;;;1.60;;
72132;SDS011;60008;50.826;6.896;2023-06-26T13:01:22;4.47;;;1.70;;
72132;SDS011;60008;50.826;6.896;2023-06-26T13:04:16;2.67;;;1.65;;
72132;SDS011;60008;50.826;6.896;2023-06-26T13:07:10;4.22;;;1.60;;
72132;SDS011;60008;50.826;6.896;2023-06-26T13:10:03;3.53;;;1.50;;
72132;SDS011;60008;50.826;6.896;2023-06-26T13:12:55;3.03;;;1.40;;
72132;SDS011;60008;50.826;6.896;2023-06-26T13:15:40;11.13;;;1.55;;
72132;SDS011;60008;50.826;6.896;2023-06-26T13:18:32;3.95;;;1.33;;
72132;SDS011;60008;50.826;6.896;2023-06-26T13:21:16;3.50;;;1.20;;
72132;SDS011;60008;50.826;6.896;2023-06-26T13:24:08;4.57;;;1.30;;
72132;SDS011;60008;50.826;6.896;2023-06-26T13:27:00;9.23;;;1.38;;
72132;SDS011;60008;50.826;6.896;2023-06-26T13:29:45;3.17;;;1.38;;
72132;SDS011;60008;50.826;6.896;2023-06-26T13:32:39;3.75;;;1.30;;
72132;SDS011;60008;50.826;6.896;2023-06-26T13:35:24;6.63;;;1.70;;
72132;SDS011;60008;50.826;6.896;2023-06-26T13:38:15;4.90;;;1.27;;
72132;SDS011;60008;50.826;6.896;2023-06-26T13:41:01;4.28;;;1.05;;
72132;SDS011;60008;50.826;6.896;2023-06-26T13:43:52;4.28;;;1.20;;
72132;SDS011;60008;50.826;6.896;2023-06-26T13:46:39;4.45;;;1.20;;
72132;SDS011;60008;50.826;6.896;2023-06-26T13:49:30;6.00;;;1.30;;
72132;SDS011;60008;50.826;6.896;2023-06-26T13:52:15;6.80;;;1.57;;
72132;SDS011;60008;50.826;6.896;2023-06-26T13:55:07;6.35;;;1.50;;
72132;SDS011;60008;50.826;6.896;2023-06-26T13:57:52;3.47;;;1.50;;
72132;SDS011;60008;50.826;6.896;2023-06-26T14:00:43;4.07;;;1.20;;
72132;SDS011;60008;50.826;6.896;2023-06-26T14:03:38;4.63;;;1.35;;
72132;SDS011;60008;50.826;6.896;2023-06-26T14:06:30;5.03;;;1.30;;
72132;SDS011;60008;50.826;6.896;2023-06-26T14:09:24;10.27;;;1.20;;
72132;SDS011;60008;50.826;6.896;2023-06-26T14:12:17;5.93;;;1.45;;
72132;SDS011;60008;50.826;6.896;2023-06-26T14:15:09;5.03;;;1.30;;
72132;SDS011;60008;50.826;6.896;2023-06-26T14:18:02;7.72;;;1.20;;
72132;SDS011;60008;50.826;6.896;2023-06-26T14:20:55;6.30;;;1.30;;
72132;SDS011;60008;50.826;6.896;2023-06-26T14:23:47;4.18;;;1.20;;
72132;SDS011;60008;50.826;6.896;2023-06-26T14:26:38;5.22;;;1.30;;
72132;SDS011;60008;50.826;6.896;2023-06-26T14:29:30;1.98;;;1.00;;
72132;SDS011;60008;50.826;6.896;2023-06-26T14:32:15;2.38;;;1.10;;
72132;SDS011;60008;50.826;6.896;2023-06-26T14:35:06;2.83;;;1.23;;
72132;SDS011;60008;50.826;6.896;2023-06-26T14:37:52;5.43;;;1.40;;
72132;SDS011;60008;50.826;6.896;2023-06-26T14:40:43;2.55;;;1.08;;
72132;SDS011;60008;50.826;6.896;2023-06-26T14:43:35;3.97;;;1.13;;
72132;SDS011;60008;50.826;6.896;2023-06-26T14:46:21;3.05;;;1.40;;
72132;SDS011;60008;50.826;6.896;2023-06-26T14:49:13;5.77;;;1.70;;
72132;SDS011;60008;50.826;6.896;2023-06-26T14:52:05;4.13;;;1.25;;
72132;SDS011;60008;50.826;6.896;2023-06-26T14:54:57;5.28;;;1.63;;
72132;SDS011;60008;50.826;6.896;2023-06-26T14:57:42;6.78;;;1.50;;
72132;SDS011;60008;50.826;6.896;2023-06-26T15:00:33;6.95;;;1.40;;
72132;SDS011;60008;50.826;6.896;2023-06-26T15:03:18;6.20;;;1.60;;
72132;SDS011;60008;50.826;6.896;2023-06-26T15:06:10;5.05;;;1.50;;
72132;SDS011;60008;50.826;6.896;2023-06-26T15:09:02;7.25;;;1.55;;
72132;SDS011;60008;50.826;6.896;2023-06-26T15:11:55;13.88;;;7.20;;
72132;SDS011;60008;50.826;6.896;2023-06-26T15:14:40;10.00;;;2.10;;
72132;SDS011;60008;50.826;6.896;2023-06-26T15:17:31;8.10;;;1.90;;
72132;SDS011;60008;50.826;6.896;2023-06-26T15:20:16;3.53;;;1.60;;
72132;SDS011;60008;50.826;6.896;2023-06-26T15:23:07;3.80;;;1.33;;
72132;SDS011;60008;50.826;6.896;2023-06-26T15:25:58;5.03;;;1.38;;
72132;SDS011;60008;50.826;6.896;2023-06-26T15:28:49;3.10;;;1.50;;
72132;SDS011;60008;50.826;6.896;2023-06-26T15:31:34;4.37;;;1.20;;
72132;SDS011;60008;50.826;6.896;2023-06-26T15:34:26;3.33;;;1.17;;
72132;SDS011;60008;50.826;6.896;2023-06-26T15:37:17;4.80;;;1.67;;
72132;SDS011;60008;50.826;6.896;2023-06-26T15:40:02;9.00;;;1.10;;
72132;SDS011;60008;50.826;6.896;2023-06-26T15:42:55;3.72;;;1.13;;
72132;SDS011;60008;50.826;6.896;2023-06-26T15:45:40;2.00;;;1.10;;
72132;SDS011;60008;50.826;6.896;2023-06-26T15:48:33;3.72;;;1.08;;
72132;SDS011;60008;50.826;6.896;2023-06-26T15:51:19;3.35;;;1.15;;
72132;SDS011;60008;50.826;6.896;2023-06-26T15:54:10;6.00;;;1.38;;
72132;SDS011;60008;50.826;6.896;2023-06-26T15:57:03;5.22;;;1.20;;
72132;SDS011;60008;50.826;6.896;2023-06-26T15:59:54;3.03;;;1.07;;
72132;SDS011;60008;50.826;6.896;2023-06-26T16:02:39;3.85;;;1.20;;
72132;SDS011;60008;50.826;6.896;2023-06-26T16:05:37;3.53;;;1.00;;
72132;SDS011;60008;50.826;6.896;2023-06-26T16:08:36;2.63;;;1.00;;
72132;SDS011;60008;50.826;6.896;2023-06-26T16:11:28;2.50;;;0.90;;
72132;SDS011;60008;50.826;6.896;2023-06-26T16:14:12;3.23;;;0.90;;
72132;SDS011;60008;50.826;6.896;2023-06-26T16:17:04;2.97;;;0.95;;
72132;SDS011;60008;50.826;6.896;2023-06-26T16:19:55;7.57;;;1.13;;
72132;SDS011;60008;50.826;6.896;2023-06-26T16:22:40;4.97;;;1.50;;
72132;SDS011;60008;50.826;6.896;2023-06-26T16:25:32;5.78;;;1.15;;
72132;SDS011;60008;50.826;6.896;2023-06-26T16:28:17;3.07;;;0.90;;
72132;SDS011;60008;50.826;6.896;2023-06-26T16:31:09;3.50;;;1.20;;
72132;SDS011;60008;50.826;6.896;2023-06-26T16:34:01;3.10;;;1.05;;
72132;SDS011;60008;50.826;6.896;2023-06-26T16:36:46;5.03;;;1.50;;
72132;SDS011;60008;50.826;6.896;2023-06-26T16:39:42;5.05;;;1.45;;
72132;SDS011;60008;50.826;6.896;2023-06-26T16:42:35;5.53;;;1.40;;
72132;SDS011;60008;50.826;6.896;2023-06-26T16:45:26;3.92;;;1.20;;
72132;SDS011;60008;50.826;6.896;2023-06-26T16:48:11;5.63;;;1.15;;
72132;SDS011;60008;50.826;6.896;2023-06-26T16:51:03;3.45;;;1.05;;
72132;SDS011;60008;50.826;6.896;2023-06-26T16:53:48;3.30;;;0.93;;
72132;SDS011;60008;50.826;6.896;2023-06-26T16:56:39;3.23;;;1.00;;
72132;SDS011;60008;50.826;6.896;2023-06-26T16:59:32;4.45;;;1.20;;
72132;SDS011;60008;50.826;6.896;2023-06-26T17:02:16;6.90;;;1.05;;
72132;SDS011;60008;50.826;6.896;2023-06-26T17:05:36;3.25;;;0.80;;
72132;SDS011;60008;50.826;6.896;2023-06-26T17:08:35;3.88;;;0.85;;